KTNU/TNU METAR and TAF weather

Enter ICAO airport designator
Station Type Date Time Source
KTNU METAR 2020/03/28 14:55 UTC NOAA

KTNU 281455Z AUTO 10008KT M1/4SM FG OVC002 08/08 A2964 RMK A01


Station Type Date Time Source
KTNU Decoded METAR 2020/03/28 14:55 UTC NOAA

Newton Municipal, IA, United States (KTNU) 41-41N 093-01W
Mar 28, 2020 - 10:55 AM EDT / 2020.03.28 1455 UTC
Wind: from the E (100 degrees) at 9 MPH (8 KT):0
Visibility: less than 1/4 mile(s):1
Sky conditions: overcast
Weather: fog
Temperature: 46 F (8 C)
Dew Point: 46 F (8 C)
Relative Humidity: 100%
Pressure (altimeter): 29.64 in. Hg (1003 hPa)
ob: KTNU 281455Z AUTO 10008KT M1/4SM FG OVC002 08/08 A2964 RMK A01
cycle: 15

Station Type Date Time Source
KTNU TAF UTC NOAA

Error!

Example: see airport list